GW1049 Weather Reports


Display with metric or nautical units.
time (UTC)temp
F
wind
direction
speed
MPH
gust
MPH
rain 1hr
in
rain 24hr
in
rain mn
in
humidity
%
barometer
mb
20260505193516 74 164 8.0 15.0 0.00 0.00 0.00 65 1019.5
20260505193103 75 134 6.0 12.0 0.00 0.00 0.00 66 1019.6
20260505192516 74 204 6.0 16.0 0.00 0.00 0.00 67 1019.5
20260505192019 74 220 8.0 16.0 0.00 0.00 0.00 66 1019.6
20260505191556 75 141 9.0 16.0 0.00 0.00 0.00 64 1019.7
20260505191013 76 123 6.0 14.0 0.00 0.00 0.00 64 1019.7
20260505190513 74 186 7.0 15.0 0.00 0.00 0.00 67 1019.6
20260505190104 75 197 7.0 18.0 0.00 0.00 0.00 67 1019.7
20260505185515 74 181 9.0 18.0 0.00 0.00 0.00 67 1019.6
20260505185018 74 176 8.0 18.0 0.00 0.00 0.00 66 1019.8
20260505184600 75 236 7.0 19.0 0.00 0.00 0.00 66 1020.1
20260505184015 76 166 8.0 18.0 0.00 0.00 0.00 65 1020.2
20260505183517 77 177 6.0 16.0 0.00 0.00 0.00 63 1020.1
20260505183103 78 162 5.0 12.0 0.00 0.00 0.00 62 1020.3
20260505182522 77 206 6.0 12.0 0.00 0.00 0.00 62 1020.1
20260505182016 77 218 7.0 13.0 0.00 0.00 0.00 61 1020.3
20260505181609 77 162 5.0 13.0 0.00 0.00 0.00 62 1020.6
20260505181015 78 159 7.0 12.0 0.00 0.00 0.00 60 1020.7
20260505180520 78 226 5.0 12.0 0.00 0.00 0.00 61 1020.6
20260505180112 77 213 6.0 15.0 0.00 0.00 0.00 60 1020.6
20260505175519 78 210 6.0 15.0 0.00 0.00 0.00 59 1020.6
20260505175018 78 168 8.0 13.0 0.00 0.00 0.00 57 1020.5
20260505174605 78 174 6.0 14.0 0.00 0.00 0.00 58 1020.4
20260505174015 78 141 8.0 14.0 0.00 0.00 0.00 58 1020.6
20260505173519 78 197 6.0 14.0 0.00 0.00 0.00 58 1020.6
20260505173051 77 182 8.0 17.0 0.00 0.00 0.00 57 1020.7
20260505172517 77 187 7.0 17.0 0.00 0.00 0.00 57 1020.7
20260505172015 78 205 6.0 16.0 0.00 0.00 0.00 58 1020.7
20260505171600 77 185 7.0 16.0 0.00 0.00 0.00 57 1020.7
20260505171017 78 173 5.0 15.0 0.00 0.00 0.00 58 1020.8
20260505170515 76 189 9.0 13.0 0.00 0.00 0.00 59 1020.8
20260505170057 78 185 3.0 16.0 0.00 0.00 0.00 58 1020.6
20260505165518 76 206 6.0 16.0 0.00 0.00 0.00 60 1020.6
20260505165017 75 196 9.0 14.0 0.00 0.00 0.00 60 1020.6
20260505164555 75 202 9.0 17.0 0.00 0.00 0.00 62 1020.7
20260505164015 75 181 8.0 17.0 0.00 0.00 0.00 61 1020.7
20260505163517 76 195 8.0 17.0 0.00 0.00 0.00 61 1020.8
20260505163105 76 113 9.0 16.0 0.00 0.00 0.00 59 1020.8
20260505162518 76 169 7.0 16.0 0.00 0.00 0.00 61 1020.8
20260505162016 76 195 7.0 17.0 0.00 0.00 0.00 61 1020.9
20260505161614 76 210 6.0 14.0 0.00 0.00 0.00 60 1020.7
20260505161019 77 128 5.0 14.0 0.00 0.00 0.00 60 1020.6
20260505160519 76 212 8.0 14.0 0.00 0.00 0.00 61 1020.5
20260505160104 76 130 8.0 16.0 0.00 0.00 0.00 60 1020.8
20260505153058 76 216 6.0 14.0 0.00 0.00 0.00 59 1020.5
20260505152519 77 208 4.0 12.0 0.00 0.00 0.00 62 1020.6
20260505152015 75 170 7.0 18.0 0.00 0.00 0.00 63 1020.7
20260505151600 75 198 8.0 13.0 0.00 0.00 0.00 64 1020.6
20260505151018 77 171 5.0 12.0 0.00 0.00 0.00 63 1020.6
20260505150531 76 139 4.0 13.0 0.00 0.00 0.00 67 1020.6
20260505140516 77 241 2.0 12.0 0.00 0.00 0.00 59 1020.1
20260505125015 72 189 2.0 8.0 0.00 0.00 0.00 70 1019.8
20260505124539 72 273 3.0 6.0 0.00 0.00 0.00 70 1019.7
20260505124016 71 228 3.0 5.0 0.00 0.00 0.00 73 1019.7
20260505123513 71 266 2.0 5.0 0.00 0.00 0.00 75 1019.7
20260505123044 70 275 1.0 5.0 0.00 0.00 0.00 77 1019.7
20260505122513 70 277 2.0 5.0 0.00 0.00 0.00 79 1019.7
20260505122017 69 233 1.0 5.0 0.00 0.00 0.00 82 1019.6
20260505121546 68 236 3.0 5.0 0.00 0.00 0.00 86 1019.6
20260505121019 66 248 1.0 3.0 0.00 0.00 0.00 90 1019.6
20260505120515 65 249 0.0 3.0 0.00 0.00 0.00 92 1019.6
20260505120046 63 249 0.0 0.0 0.00 0.00 0.00 93 1019.6
20260505115515 62 247 0.0 0.0 0.00 0.00 0.00 93 1019.6
20260505115015 61 247 0.0 0.0 0.00 0.00 0.00 94 1019.5
20260505114552 60 247 0.0 0.0 0.00 0.00 0.00 94 1019.5
20260505114018 59 247 0.0 0.0 0.00 0.00 0.00 94 1019.8
20260505113516 58 247 0.0 0.0 0.00 0.00 0.00 94 1019.7
20260505113106 57 247 0.0 0.0 0.00 0.00 0.00 94 1019.6
20260505112514 57 247 0.0 0.0 0.00 0.00 0.00 94 1019.6
20260505112015 56 247 0.0 0.0 0.00 0.00 0.00 94 1019.3
20260505111542 56 247 0.0 0.0 0.00 0.00 0.00 94 1019.5
20260505111017 56 247 0.0 0.0 0.00 0.00 0.00 94 1019.4
20260505110529 55 247 0.0 0.0 0.00 0.00 0.00 94 1019.3
20260505102016 54 247 0.0 0.0 0.00 0.00 0.00 93 1018.8
20260505101554 54 247 0.0 0.0 0.00 0.00 0.00 93 1018.8
20260505101013 54 247 0.0 0.0 0.00 0.00 0.00 93 1018.6
20260505100518 54 247 0.0 0.0 0.00 0.00 0.00 93 1018.5
20260505100053 54 247 0.0 0.0 0.00 0.00 0.00 93 1018.6
20260505095517 54 247 0.0 0.0 0.00 0.00 0.00 93 1018.5
20260505095016 54 247 0.0 0.0 0.00 0.00 0.00 93 1018.6
20260505094557 54 247 0.0 0.0 0.00 0.00 0.00 93 1018.5
20260505094014 54 247 0.0 0.0 0.00 0.00 0.00 93 1018.2
20260505093518 54 247 0.0 0.0 0.00 0.00 0.00 93 1018.4
20260505093051 54 247 0.0 0.0 0.00 0.00 0.00 92 1018.1
20260505092515 54 247 0.0 0.0 0.00 0.00 0.00 92 1018.0
20260505092016 54 247 0.0 0.0 0.00 0.00 0.00 92 1018.0
20260505091608 55 247 0.0 0.0 0.00 0.00 0.00 92 1017.9
20260505091019 55 247 0.0 0.0 0.00 0.00 0.00 92 1017.8
20260505090517 55 247 0.0 0.0 0.00 0.00 0.00 92 1017.6
20260505090100 55 247 0.0 0.0 0.00 0.00 0.00 92 1017.7
20260505085516 55 247 0.0 0.0 0.00 0.00 0.00 92 1017.7
20260505085017 55 247 0.0 0.0 0.00 0.00 0.00 92 1017.7
20260505084555 55 247 0.0 0.0 0.00 0.00 0.00 92 1017.8
20260505084019 55 247 0.0 0.0 0.00 0.00 0.00 92 1017.6
20260505083515 55 247 0.0 0.0 0.00 0.00 0.00 92 1017.8
20260505083051 55 247 0.0 0.0 0.00 0.00 0.00 92 1017.7
20260505082516 55 247 0.0 0.0 0.00 0.00 0.00 92 1017.8
20260505082015 55 247 0.0 0.0 0.00 0.00 0.00 91 1017.7
20260505081559 55 247 0.0 0.0 0.00 0.00 0.00 91 1017.7
20260505081016 55 247 0.0 0.0 0.00 0.00 0.00 91 1017.8
20260505080515 55 247 0.0 0.0 0.00 0.00 0.00 91 1017.8
20260505080105 55 247 0.0 0.0 0.00 0.00 0.00 91 1017.8
20260505075515 55 247 0.0 0.0 0.00 0.00 0.00 91 1017.7
20260505075019 55 247 0.0 0.0 0.00 0.00 0.00 91 1017.6
20260505074559 55 247 0.0 0.0 0.00 0.00 0.00 91 1017.7
20260505074016 55 247 0.0 0.0 0.00 0.00 0.00 91 1017.5
20260505073517 55 247 0.0 0.0 0.00 0.00 0.00 91 1017.5
20260505073057 55 247 0.0 0.0 0.00 0.00 0.00 90 1017.6
20260505072521 55 247 0.0 0.0 0.00 0.00 0.00 90 1017.6
20260505072015 56 247 0.0 0.0 0.00 0.00 0.00 90 1017.6
20260505071558 56 247 0.0 0.0 0.00 0.00 0.00 90 1017.8
20260505071016 56 247 0.0 0.0 0.00 0.00 0.00 89 1017.3
20260505070519 56 247 0.0 0.0 0.00 0.00 0.00 89 1017.6
20260505070104 56 247 0.0 0.0 0.00 0.00 0.00 89 1017.6
20260505065518 56 247 0.0 0.0 0.00 0.00 0.00 89 1017.5
20260505065015 56 247 0.0 0.0 0.00 0.00 0.00 88 1017.8
20260505064820 57 247 0.0 0.0 0.00 0.00 0.00 88 1017.8
20260505064018 57 247 0.0 2.0 0.00 0.00 0.00 88 1017.7
20260505063518 57 247 0.0 3.0 0.00 0.00 0.00 88 1017.8
20260505063138 57 247 0.0 3.0 0.00 0.00 0.00 88 1017.8
20260505062521 57 245 0.0 3.0 0.00 0.00 0.00 88 1017.9
20260505062015 57 244 0.0 3.0 0.00 0.00 0.00 87 1018.0
20260505061640 57 244 0.0 2.0 0.00 0.00 0.00 87 1018.1
20260505061016 57 245 0.0 0.0 0.00 0.00 0.00 87 1017.8
20260505060521 57 245 0.0 0.0 0.00 0.00 0.00 87 1017.9
20260505060114 57 245 0.0 0.0 0.00 0.00 0.00 86 1018.2
20260505055522 58 245 0.0 0.0 0.00 0.00 0.00 86 1018.2
20260505055020 58 245 0.0 0.0 0.00 0.00 0.00 86 1018.2
20260505054611 58 245 0.0 2.0 0.00 0.00 0.00 85 1018.3
20260505054021 58 244 0.0 3.0 0.00 0.00 0.00 86 1018.1
20260505053517 59 244 0.0 3.0 0.00 0.00 0.00 86 1018.3
20260505053112 59 243 0.0 3.0 0.00 0.00 0.00 86 1018.6
20260505052517 59 241 0.0 2.0 0.00 0.00 0.00 86 1018.4
20260505052019 58 240 0.0 2.0 0.00 0.00 0.00 87 1018.4
20260505051615 58 240 0.0 0.0 0.00 0.00 0.00 86 1018.5
20260505051021 58 240 0.0 0.0 0.00 0.00 0.00 87 1018.6
20260505050523 58 241 0.0 0.0 0.00 0.00 0.00 87 1018.6
20260505050115 58 241 0.0 0.0 0.00 0.00 0.00 87 1018.6
20260505041548 58 241 0.0 0.0 0.00 0.00 0.00 85 1018.5
20260505041016 58 241 0.0 0.0 0.00 0.00 0.00 84 1018.7
20260505040517 58 241 0.0 0.0 0.00 0.00 0.00 84 1018.7
20260505040050 58 241 0.0 0.0 0.00 0.00 0.00 84 1018.7
20260505035530 59 241 0.0 2.0 0.00 0.00 0.00 83 1018.7
20260505035018 59 241 0.0 2.0 0.00 0.00 0.00 83 1018.8
20260505034618 59 241 0.0 2.0 0.00 0.00 0.00 83 1018.8
20260505034020 59 241 0.0 2.0 0.00 0.00 0.00 82 1018.7
20260505033523 60 241 0.0 2.0 0.00 0.00 0.00 82 1018.7
20260505033119 60 241 0.0 3.0 0.00 0.00 0.00 81 1018.9
20260505032521 60 241 1.0 3.0 0.00 0.00 0.00 81 1018.8
20260505032020 60 242 0.0 2.0 0.00 0.00 0.00 81 1018.8
20260505031621 60 242 0.0 2.0 0.00 0.00 0.00 81 1018.8
20260505031020 60 241 0.0 0.0 0.00 0.00 0.00 81 1018.9
20260505030521 60 242 0.0 0.0 0.00 0.00 0.00 81 1018.8
20260505030132 60 244 0.0 0.0 0.00 0.00 0.00 80 1018.9
20260505025521 60 243 0.0 0.0 0.00 0.00 0.00 80 1018.9
20260505025020 60 242 0.0 0.0 0.00 0.00 0.00 80 1018.9
20260505024630 60 242 0.0 0.0 0.00 0.00 0.00 80 1018.9
20260505024020 60 242 0.0 0.0 0.00 0.00 0.00 79 1018.8
20260505023518 60 242 0.0 0.0 0.00 0.00 0.00 78 1018.8
20260505023117 61 242 0.0 0.0 0.00 0.00 0.00 78 1018.8
20260505022520 61 242 0.0 0.0 0.00 0.00 0.00 77 1018.8
20260505022020 61 242 0.0 1.0 0.00 0.00 0.00 77 1018.9
20260505021619 61 244 0.0 1.0 0.00 0.00 0.00 76 1018.9
20260505021020 62 241 0.0 3.0 0.00 0.00 0.00 76 1018.9
20260505020521 62 241 1.0 3.0 0.00 0.00 0.00 76 1018.7
20260505020121 62 242 0.0 1.0 0.00 0.00 0.00 75 1018.8
20260505015521 62 242 0.0 3.0 0.00 0.00 0.00 75 1018.7
20260505015021 62 242 0.0 3.0 0.00 0.00 0.00 74 1018.8
20260505014618 63 249 0.0 0.0 0.00 0.00 0.00 74 1018.8
20260505014024 63 247 0.0 3.0 0.00 0.00 0.00 74 1018.7
20260505013520 63 247 1.0 3.0 0.00 0.00 0.00 74 1018.8
20260505013115 63 248 0.0 4.0 0.00 0.00 0.00 74 1018.7
20260505012520 63 249 0.0 3.0 0.00 0.00 0.00 73 1018.7
20260505012031 63 249 1.0 3.0 0.00 0.00 0.00 73 1018.7
20260505011553 63 248 0.0 2.0 0.00 0.00 0.00 73 1018.4
20260505011020 64 249 0.0 2.0 0.00 0.00 0.00 72 1018.3
20260505010518 64 250 0.0 3.0 0.00 0.00 0.00 71 1018.2
20260505010113 64 247 0.0 3.0 0.00 0.00 0.00 71 1018.2
20260505005520 64 246 0.0 3.0 0.00 0.00 0.00 70 1018.2
20260505005017 65 247 0.0 3.0 0.00 0.00 0.00 69 1018.3
20260505004815 65 246 1.0 4.0 0.00 0.00 0.00 68 1018.2
20260505004014 65 245 0.0 4.0 0.00 0.00 0.00 68 1018.3
20260505003518 66 238 1.0 7.0 0.00 0.00 0.00 67 1018.3
20260505003101 66 238 2.0 7.0 0.00 0.00 0.00 66 1018.3
20260505002515 66 239 3.0 6.0 0.00 0.00 0.00 65 1018.0
20260505002014 66 240 2.0 6.0 0.00 0.00 0.00 65 1018.1
20260505001609 66 191 2.0 6.0 0.00 0.00 0.00 64 1018.0
20260505001014 67 197 1.0 5.0 0.00 0.00 0.00 64 1018.0
20260505000515 67 224 1.0 5.0 0.00 0.00 0.00 63 1018.0
20260505000117 67 209 2.0 7.0 0.00 0.00 0.00 62 1017.9
20260504235516 67 276 3.0 7.0 0.00 0.00 0.00 62 1017.8
20260504235017 68 277 2.0 8.0 0.00 0.00 0.00 61 1017.8
20260504234609 68 205 5.0 8.0 0.00 0.00 0.00 61 1017.9
20260504234016 68 224 2.0 10.0 0.00 0.00 0.00 61 1017.7
20260504233515 68 165 3.0 10.0 0.00 0.00 0.00 61 1017.8
20260504233112 68 216 3.0 9.0 0.00 0.00 0.00 61 1017.8
20260504232516 69 166 4.0 9.0 0.00 0.00 0.00 61 1017.7
20260504232017 69 253 4.0 10.0 0.00 0.00 0.00 61 1017.7
20260504231607 69 250 3.0 8.0 0.00 0.00 0.00 61 1017.8
20260504231014 69 179 3.0 8.0 0.00 0.00 0.00 61 1017.7
20260504230517 69 231 5.0 12.0 0.00 0.00 0.00 61 1017.7
20260504230120 69 231 5.0 14.0 0.00 0.00 0.00 60 1017.8
20260504225519 69 177 4.0 13.0 0.00 0.00 0.00 60 1017.8
20260504225018 69 199 6.0 13.0 0.00 0.00 0.00 60 1017.8
20260504224620 70 181 6.0 15.0 0.00 0.00 0.00 59 1017.8
20260504224017 70 194 8.0 15.0 0.00 0.00 0.00 59 1017.7
20260504223517 70 185 6.0 17.0 0.00 0.00 0.00 59 1017.8
20260504223117 70 201 6.0 11.0 0.00 0.00 0.00 59 1017.7
20260504222514 70 220 4.0 13.0 0.00 0.00 0.00 60 1017.7
20260504222016 70 116 8.0 17.0 0.00 0.00 0.00 61 1017.9
20260504221630 70 206 7.0 17.0 0.00 0.00 0.00 61 1017.9
20260504221016 70 166 4.0 19.0 0.00 0.00 0.00 62 1018.0
20260504220518 70 220 6.0 20.0 0.00 0.00 0.00 61 1017.9
20260504220124 70 202 8.0 20.0 0.00 0.00 0.00 63 1018.0
20260504215517 70 193 7.0 18.0 0.00 0.00 0.00 64 1018.0
20260504215016 70 179 6.0 16.0 0.00 0.00 0.00 64 1018.0
20260504214821 70 209 7.0 18.0 0.00 0.00 0.00 64 1018.1
20260504214023 70 217 8.0 18.0 0.00 0.00 0.00 63 1018.0
20260504213521 71 212 9.0 21.0 0.00 0.00 0.00 64 1018.1
20260504213100 70 164 6.0 21.0 0.00 0.00 0.00 63 1017.8
20260504212521 71 176 8.0 13.0 0.00 0.00 0.00 63 1017.8
20260504212019 71 177 6.0 16.0 0.00 0.00 0.00 63 1018.0
20260504211817 71 137 8.0 18.0 0.00 0.00 0.00 62 1018.1
20260504211017 71 212 8.0 16.0 0.00 0.00 0.00 61 1018.0
20260504210521 71 145 8.0 17.0 0.00 0.00 0.00 61 1017.9
20260504210116 72 180 7.0 20.0 0.00 0.00 0.00 61 1018.1
20260504205517 71 197 6.0 20.0 0.00 0.00 0.00 60 1018.0
20260504205020 71 175 7.0 18.0 0.00 0.00 0.00 61 1018.0
20260504204612 71 165 8.0 18.0 0.00 0.00 0.00 60 1018.1
20260504204020 71 165 6.0 17.0 0.00 0.00 0.00 62 1018.2
20260504203522 72 183 6.0 17.0 0.00 0.00 0.00 61 1018.3
20260504203110 72 193 9.0 19.0 0.00 0.00 0.00 60 1018.4
20260504202530 72 204 7.0 19.0 0.00 0.00 0.00 61 1018.4
20260504202017 71 156 8.0 17.0 0.00 0.00 0.00 61 1018.5
20260504201557 71 208 11.0 20.0 0.00 0.00 0.00 62 1018.5
20260504201023 72 191 8.0 21.0 0.00 0.00 0.00 60 1018.3
20260504200518 72 179 7.0 18.0 0.00 0.00 0.00 59 1018.2
20260504200101 73 75 5.0 15.0 0.00 0.00 0.00 60 1018.4
20260504195515 72 193 7.0 19.0 0.00 0.00 0.00 61 1018.3
20260504195015 72 171 7.0 19.0 0.00 0.00 0.00 59 1018.5
20260504194602 72 217 8.0 17.0 0.00 0.00 0.00 60 1018.6
20260504194014 72 207 8.0 17.0 0.00 0.00 0.00 60 1018.5